sensor_id;sensor_type;location;lat;lon;timestamp;pressure;altitude;pressure_sealevel;temperature;humidity
25947;BME280;13745;51.470;9.894;2022-10-16T00:02:32;99010.44;;;18.77;66.39
25947;BME280;13745;51.470;9.894;2022-10-16T00:05:17;99015.94;;;18.77;66.47
25947;BME280;13745;51.470;9.894;2022-10-16T00:08:04;99015.94;;;18.77;66.39
25947;BME280;13745;51.470;9.894;2022-10-16T00:10:50;99028.88;;;18.77;66.46
25947;BME280;13745;51.470;9.894;2022-10-16T00:13:38;99022.94;;;18.75;66.43
25947;BME280;13745;51.470;9.894;2022-10-16T00:16:26;99024.81;;;18.71;66.59
25947;BME280;13745;51.470;9.894;2022-10-16T00:19:12;99034.91;;;18.67;66.52
25947;BME280;13745;51.470;9.894;2022-10-16T00:21:58;99034.91;;;18.67;66.50
25947;BME280;13745;51.470;9.894;2022-10-16T00:24:44;99044.19;;;18.62;66.68
25947;BME280;13745;51.470;9.894;2022-10-16T00:27:30;99041.81;;;18.61;66.65
25947;BME280;13745;51.470;9.894;2022-10-16T00:30:16;99040.94;;;18.57;66.80
25947;BME280;13745;51.470;9.894;2022-10-16T00:33:03;99038.44;;;18.52;66.94
25947;BME280;13745;51.470;9.894;2022-10-16T00:35:49;99048.59;;;18.52;66.92
25947;BME280;13745;51.470;9.894;2022-10-16T00:38:35;99041.16;;;18.52;67.00
25947;BME280;13745;51.470;9.894;2022-10-16T00:41:23;99049.75;;;18.51;67.01
25947;BME280;13745;51.470;9.894;2022-10-16T00:44:46;99037.56;;;18.48;67.16
25947;BME280;13745;51.470;9.894;2022-10-16T00:47:34;99035.09;;;18.43;67.16
25947;BME280;13745;51.470;9.894;2022-10-16T00:50:26;99034.19;;;18.39;67.23
25947;BME280;13745;51.470;9.894;2022-10-16T00:53:14;99029.50;;;18.40;67.23
25947;BME280;13745;51.470;9.894;2022-10-16T00:56:00;99025.28;;;18.42;67.22
25947;BME280;13745;51.470;9.894;2022-10-16T00:58:46;99033.50;;;18.42;67.25
25947;BME280;13745;51.470;9.894;2022-10-16T01:01:32;99027.22;;;18.42;67.24
25947;BME280;13745;51.470;9.894;2022-10-16T01:04:18;99026.75;;;18.40;67.29
25947;BME280;13745;51.470;9.894;2022-10-16T01:07:11;99030.22;;;18.37;67.29
25947;BME280;13745;51.470;9.894;2022-10-16T01:10:06;99035.59;;;18.34;67.30
25947;BME280;13745;51.470;9.894;2022-10-16T01:12:58;99030.72;;;18.27;67.49
25947;BME280;13745;51.470;9.894;2022-10-16T01:15:47;99035.09;;;18.28;67.40
25947;BME280;13745;51.470;9.894;2022-10-16T01:18:39;99044.53;;;18.31;67.44
25947;BME280;13745;51.470;9.894;2022-10-16T01:21:32;99047.72;;;18.33;67.32
25947;BME280;13745;51.470;9.894;2022-10-16T01:24:27;99044.53;;;18.31;67.48
25947;BME280;13745;51.470;9.894;2022-10-16T01:27:21;99053.13;;;18.29;67.33
25947;BME280;13745;51.470;9.894;2022-10-16T01:30:13;99047.97;;;18.28;67.40
25947;BME280;13745;51.470;9.894;2022-10-16T01:33:05;99053.81;;;18.26;67.48
25947;BME280;13745;51.470;9.894;2022-10-16T01:35:57;99065.25;;;18.28;67.28
25947;BME280;13745;51.470;9.894;2022-10-16T01:38:47;99066.38;;;18.27;67.25
25947;BME280;13745;51.470;9.894;2022-10-16T01:41:39;99053.44;;;18.28;67.23
25947;BME280;13745;51.470;9.894;2022-10-16T01:44:31;99044.09;;;18.29;67.17
25947;BME280;13745;51.470;9.894;2022-10-16T01:47:18;99045.06;;;18.21;67.29
25947;BME280;13745;51.470;9.894;2022-10-16T01:50:08;99061.06;;;18.19;67.40
25947;BME280;13745;51.470;9.894;2022-10-16T01:52:56;99066.09;;;18.17;67.50
25947;BME280;13745;51.470;9.894;2022-10-16T01:55:45;99064.16;;;18.17;67.31
25947;BME280;13745;51.470;9.894;2022-10-16T01:58:35;99061.78;;;18.16;67.27
25947;BME280;13745;51.470;9.894;2022-10-16T02:01:26;99070.22;;;18.11;67.39
25947;BME280;13745;51.470;9.894;2022-10-16T02:04:16;99062.72;;;18.08;67.47
25947;BME280;13745;51.470;9.894;2022-10-16T02:07:03;99067.75;;;18.06;67.44
25947;BME280;13745;51.470;9.894;2022-10-16T02:09:49;99066.16;;;18.05;67.51
25947;BME280;13745;51.470;9.894;2022-10-16T02:12:37;99068.00;;;18.01;67.70
25947;BME280;13745;51.470;9.894;2022-10-16T02:15:24;99077.53;;;17.92;68.01
25947;BME280;13745;51.470;9.894;2022-10-16T02:18:11;99073.41;;;17.86;68.29
25947;BME280;13745;51.470;9.894;2022-10-16T02:21:00;99075.59;;;17.81;68.38
25947;BME280;13745;51.470;9.894;2022-10-16T02:23:51;99074.81;;;17.80;68.62
25947;BME280;13745;51.470;9.894;2022-10-16T02:26:44;99090.44;;;17.80;68.45
25947;BME280;13745;51.470;9.894;2022-10-16T02:29:32;99087.00;;;17.83;68.36
25947;BME280;13745;51.470;9.894;2022-10-16T02:32:24;99077.09;;;17.78;68.64
25947;BME280;13745;51.470;9.894;2022-10-16T02:35:17;99080.97;;;17.77;68.71
25947;BME280;13745;51.470;9.894;2022-10-16T02:38:05;99078.13;;;17.74;68.72
25947;BME280;13745;51.470;9.894;2022-10-16T02:40:51;99080.88;;;17.74;68.86
25947;BME280;13745;51.470;9.894;2022-10-16T02:43:37;99074.69;;;17.77;68.83
25947;BME280;13745;51.470;9.894;2022-10-16T02:46:23;99070.13;;;17.81;68.91
25947;BME280;13745;51.470;9.894;2022-10-16T02:49:08;99073.75;;;17.85;68.84
25947;BME280;13745;51.470;9.894;2022-10-16T02:51:55;99076.50;;;17.85;68.79
25947;BME280;13745;51.470;9.894;2022-10-16T02:54:41;99075.59;;;17.81;68.92
25947;BME280;13745;51.470;9.894;2022-10-16T02:57:27;99083.38;;;17.79;68.91
25947;BME280;13745;51.470;9.894;2022-10-16T03:00:15;99085.63;;;17.77;68.93
25947;BME280;13745;51.470;9.894;2022-10-16T03:03:01;99080.06;;;17.73;68.91
25947;BME280;13745;51.470;9.894;2022-10-16T03:05:47;99071.41;;;17.71;69.03
25947;BME280;13745;51.470;9.894;2022-10-16T03:08:34;99079.53;;;17.68;69.09
25947;BME280;13745;51.470;9.894;2022-10-16T03:11:20;99084.56;;;17.66;69.00
25947;BME280;13745;51.470;9.894;2022-10-16T03:14:06;99081.91;;;17.70;69.04
25947;BME280;13745;51.470;9.894;2022-10-16T03:16:52;99083.88;;;17.69;69.22
25947;BME280;13745;51.470;9.894;2022-10-16T03:19:38;99086.94;;;17.68;68.98
25947;BME280;13745;51.470;9.894;2022-10-16T03:22:24;99086.16;;;17.67;69.07
25947;BME280;13745;51.470;9.894;2022-10-16T03:25:11;99089.91;;;17.63;69.06
25947;BME280;13745;51.470;9.894;2022-10-16T03:27:57;99089.13;;;17.62;68.98
25947;BME280;13745;51.470;9.894;2022-10-16T03:30:43;99102.38;;;17.60;69.05
25947;BME280;13745;51.470;9.894;2022-10-16T03:33:29;99107.84;;;17.60;69.01
25947;BME280;13745;51.470;9.894;2022-10-16T03:36:15;99113.31;;;17.60;69.04
25947;BME280;13745;51.470;9.894;2022-10-16T03:39:01;99110.56;;;17.60;69.00
25947;BME280;13745;51.470;9.894;2022-10-16T03:41:48;99111.72;;;17.59;68.98
25947;BME280;13745;51.470;9.894;2022-10-16T03:44:34;99113.66;;;17.59;68.95
25947;BME280;13745;51.470;9.894;2022-10-16T03:47:20;99129.66;;;17.57;68.97
25947;BME280;13745;51.470;9.894;2022-10-16T03:50:07;99124.53;;;17.55;69.05
25947;BME280;13745;51.470;9.894;2022-10-16T03:52:53;99126.00;;;17.53;68.99
25947;BME280;13745;51.470;9.894;2022-10-16T03:55:40;99116.19;;;17.52;68.95
25947;BME280;13745;51.470;9.894;2022-10-16T03:58:28;99121.56;;;17.48;68.99
25947;BME280;13745;51.470;9.894;2022-10-16T04:01:14;99122.94;;;17.43;68.83
25947;BME280;13745;51.470;9.894;2022-10-16T04:04:00;99128.78;;;17.41;69.11
25947;BME280;13745;51.470;9.894;2022-10-16T04:06:45;99122.03;;;17.39;69.05
25947;BME280;13745;51.470;9.894;2022-10-16T04:09:31;99138.00;;;17.37;69.01
25947;BME280;13745;51.470;9.894;2022-10-16T04:12:17;99137.91;;;17.33;68.99
25947;BME280;13745;51.470;9.894;2022-10-16T04:15:05;99144.50;;;17.32;69.06
25947;BME280;13745;51.470;9.894;2022-10-16T04:17:51;99138.25;;;17.32;68.92
25947;BME280;13745;51.470;9.894;2022-10-16T04:20:37;99137.44;;;17.31;69.01
25947;BME280;13745;51.470;9.894;2022-10-16T04:23:23;99155.34;;;17.29;68.83
25947;BME280;13745;51.470;9.894;2022-10-16T04:26:09;99142.81;;;17.28;68.91
25947;BME280;13745;51.470;9.894;2022-10-16T04:28:55;99141.19;;;17.27;68.83
25947;BME280;13745;51.470;9.894;2022-10-16T04:31:42;99147.69;;;17.23;68.91
25947;BME280;13745;51.470;9.894;2022-10-16T04:34:28;99149.66;;;17.22;69.03
25947;BME280;13745;51.470;9.894;2022-10-16T04:37:14;99145.31;;;17.21;68.96
25947;BME280;13745;51.470;9.894;2022-10-16T04:40:00;99146.47;;;17.20;68.97
25947;BME280;13745;51.470;9.894;2022-10-16T04:42:46;99141.69;;;17.17;68.92
25947;BME280;13745;51.470;9.894;2022-10-16T04:45:32;99151.03;;;17.16;68.93
25947;BME280;13745;51.470;9.894;2022-10-16T04:48:19;99144.41;;;17.17;68.85
25947;BME280;13745;51.470;9.894;2022-10-16T04:51:05;99150.69;;;17.18;68.74
25947;BME280;13745;51.470;9.894;2022-10-16T04:53:51;99151.81;;;17.17;68.78
25947;BME280;13745;51.470;9.894;2022-10-16T04:56:37;99150.69;;;17.18;68.70
25947;BME280;13745;51.470;9.894;2022-10-16T04:59:27;99144.53;;;17.21;68.65
25947;BME280;13745;51.470;9.894;2022-10-16T05:02:13;99144.28;;;17.26;68.50
25947;BME280;13745;51.470;9.894;2022-10-16T05:05:00;99144.41;;;17.29;68.51
25947;BME280;13745;51.470;9.894;2022-10-16T05:07:46;99132.66;;;17.28;68.36
25947;BME280;13745;51.470;9.894;2022-10-16T05:10:33;99132.19;;;17.26;68.33
25947;BME280;13745;51.470;9.894;2022-10-16T05:13:19;99133.47;;;17.29;68.28
25947;BME280;13745;51.470;9.894;2022-10-16T05:16:06;99130.72;;;17.29;68.16
25947;BME280;13745;51.470;9.894;2022-10-16T05:18:52;99119.44;;;17.30;67.98
25947;BME280;13745;51.470;9.894;2022-10-16T05:21:39;99114.75;;;17.31;68.03
25947;BME280;13745;51.470;9.894;2022-10-16T05:24:25;99097.19;;;17.32;67.83
25947;BME280;13745;51.470;9.894;2022-10-16T05:27:11;99100.81;;;17.36;67.72
25947;BME280;13745;51.470;9.894;2022-10-16T05:30:04;99111.06;;;17.39;67.64
25947;BME280;13745;51.470;9.894;2022-10-16T05:32:50;99118.63;;;17.42;67.59
25947;BME280;13745;51.470;9.894;2022-10-16T05:35:37;99130.81;;;17.44;67.45
25947;BME280;13745;51.470;9.894;2022-10-16T05:38:24;99150.44;;;17.46;67.50
25947;BME280;13745;51.470;9.894;2022-10-16T05:41:10;99158.97;;;17.45;67.35
25947;BME280;13745;51.470;9.894;2022-10-16T05:43:56;99167.19;;;17.45;67.37
25947;BME280;13745;51.470;9.894;2022-10-16T05:46:41;99151.78;;;17.40;67.33
25947;BME280;13745;51.470;9.894;2022-10-16T05:49:27;99165.81;;;17.39;67.34
25947;BME280;13745;51.470;9.894;2022-10-16T05:52:13;99165.03;;;17.38;67.31
25947;BME280;13745;51.470;9.894;2022-10-16T05:55:00;99181.44;;;17.38;67.30
25947;BME280;13745;51.470;9.894;2022-10-16T05:57:46;99190.44;;;17.39;67.20
25947;BME280;13745;51.470;9.894;2022-10-16T06:00:32;99196.41;;;17.41;67.13
25947;BME280;13745;51.470;9.894;2022-10-16T06:03:18;99205.41;;;17.41;67.11
25947;BME280;13745;51.470;9.894;2022-10-16T06:06:08;99208.97;;;17.42;67.02
25947;BME280;13745;51.470;9.894;2022-10-16T06:08:55;99211.34;;;17.43;66.93
25947;BME280;13745;51.470;9.894;2022-10-16T06:11:42;99209.84;;;17.46;66.95
25947;BME280;13745;51.470;9.894;2022-10-16T06:14:28;99221.72;;;17.49;66.87
25947;BME280;13745;51.470;9.894;2022-10-16T06:17:15;99219.44;;;17.51;66.73
25947;BME280;13745;51.470;9.894;2022-10-16T06:20:01;99220.81;;;17.57;66.58
25947;BME280;13745;51.470;9.894;2022-10-16T06:22:46;99223.31;;;17.62;66.53
25947;BME280;13745;51.470;9.894;2022-10-16T06:25:32;99230.16;;;17.68;66.52
25947;BME280;13745;51.470;9.894;2022-10-16T06:28:19;99229.47;;;17.71;66.36
25947;BME280;13745;51.470;9.894;2022-10-16T06:31:07;99242.56;;;17.77;66.35
25947;BME280;13745;51.470;9.894;2022-10-16T06:33:53;99239.16;;;17.80;66.35
25947;BME280;13745;51.470;9.894;2022-10-16T06:36:40;99251.38;;;17.83;66.27
25947;BME280;13745;51.470;9.894;2022-10-16T06:39:27;99256.16;;;17.86;66.30
25947;BME280;13745;51.470;9.894;2022-10-16T06:42:13;99255.94;;;17.91;66.25
25947;BME280;13745;51.470;9.894;2022-10-16T06:45:01;99263.00;;;17.92;66.21
25947;BME280;13745;51.470;9.894;2022-10-16T06:47:47;99264.63;;;17.93;66.17
25947;BME280;13745;51.470;9.894;2022-10-16T06:50:32;99265.53;;;17.96;66.17
25947;BME280;13745;51.470;9.894;2022-10-16T06:53:18;99268.81;;;18.02;66.09
25947;BME280;13745;51.470;9.894;2022-10-16T06:56:08;99273.72;;;18.08;65.91
25947;BME280;13745;51.470;9.894;2022-10-16T06:58:54;99281.72;;;18.13;65.80
25947;BME280;13745;51.470;9.894;2022-10-16T07:01:41;99284.91;;;18.15;65.71
25947;BME280;13745;51.470;9.894;2022-10-16T07:04:27;99304.66;;;18.20;65.69
25947;BME280;13745;51.470;9.894;2022-10-16T07:07:12;99305.66;;;18.28;65.52
25947;BME280;13745;51.470;9.894;2022-10-16T07:09:58;99306.31;;;18.48;65.08
25947;BME280;13745;51.470;9.894;2022-10-16T07:12:44;99297.56;;;18.70;64.48
25947;BME280;13745;51.470;9.894;2022-10-16T07:15:30;99302.56;;;18.80;64.22
25947;BME280;13745;51.470;9.894;2022-10-16T07:18:17;99306.44;;;18.79;64.01
25947;BME280;13745;51.470;9.894;2022-10-16T07:21:04;99312.84;;;18.71;63.87
25947;BME280;13745;51.470;9.894;2022-10-16T07:23:51;99312.19;;;18.62;63.80
25947;BME280;13745;51.470;9.894;2022-10-16T07:26:37;99319.44;;;18.55;63.64
25947;BME280;13745;51.470;9.894;2022-10-16T07:29:24;99342.84;;;18.52;63.57
25947;BME280;13745;51.470;9.894;2022-10-16T07:32:10;99342.94;;;18.67;62.96
25947;BME280;13745;51.470;9.894;2022-10-16T07:34:57;99339.84;;;18.69;62.80
25947;BME280;13745;51.470;9.894;2022-10-16T07:37:44;99337.47;;;18.67;62.54
25947;BME280;13745;51.470;9.894;2022-10-16T07:40:30;99345.44;;;18.72;62.37
25947;BME280;13745;51.470;9.894;2022-10-16T07:43:16;99337.28;;;18.87;62.10
25947;BME280;13745;51.470;9.894;2022-10-16T07:46:01;99348.78;;;19.05;61.62
25947;BME280;13745;51.470;9.894;2022-10-16T07:48:48;99353.88;;;19.18;61.28
25947;BME280;13745;51.470;9.894;2022-10-16T07:51:35;99356.34;;;19.23;61.08
25947;BME280;13745;51.470;9.894;2022-10-16T07:54:22;99350.75;;;19.19;61.15
25947;BME280;13745;51.470;9.894;2022-10-16T07:57:08;99351.66;;;19.23;60.96
25947;BME280;13745;51.470;9.894;2022-10-16T07:59:54;99362.72;;;19.27;60.82
25947;BME280;13745;51.470;9.894;2022-10-16T08:02:40;99366.53;;;19.22;61.00
25947;BME280;13745;51.470;9.894;2022-10-16T08:05:26;99373.09;;;19.18;60.91
25947;BME280;13745;51.470;9.894;2022-10-16T08:08:14;99377.59;;;19.26;60.79
25947;BME280;13745;51.470;9.894;2022-10-16T08:11:00;99391.34;;;19.26;60.73
25947;BME280;13745;51.470;9.894;2022-10-16T08:13:48;99393.50;;;19.32;60.42
25947;BME280;13745;51.470;9.894;2022-10-16T08:16:34;99394.03;;;19.37;60.07
25947;BME280;13745;51.470;9.894;2022-10-16T08:19:20;99391.84;;;19.58;59.79
25947;BME280;13745;51.470;9.894;2022-10-16T08:22:06;99398.84;;;19.82;59.20
25947;BME280;13745;51.470;9.894;2022-10-16T08:24:53;99421.00;;;20.19;58.32
25947;BME280;13745;51.470;9.894;2022-10-16T08:27:39;99421.28;;;20.45;57.80
25947;BME280;13745;51.470;9.894;2022-10-16T08:30:25;99419.22;;;20.57;57.38
25947;BME280;13745;51.470;9.894;2022-10-16T08:33:11;99418.06;;;20.58;57.39
25947;BME280;13745;51.470;9.894;2022-10-16T08:35:56;99422.50;;;20.47;57.58
25947;BME280;13745;51.470;9.894;2022-10-16T08:38:43;99419.47;;;20.67;56.99
25947;BME280;13745;51.470;9.894;2022-10-16T08:41:48;99419.66;;;20.93;56.40
25947;BME280;13745;51.470;9.894;2022-10-16T08:45:07;99425.78;;;20.87;56.21
25947;BME280;13745;51.470;9.894;2022-10-16T08:48:08;99421.91;;;20.54;56.97
25947;BME280;13745;51.470;9.894;2022-10-16T08:50:57;99439.81;;;20.18;57.69
25947;BME280;13745;51.470;9.894;2022-10-16T08:53:45;99438.03;;;19.95;58.29
25947;BME280;13745;51.470;9.894;2022-10-16T08:56:35;99446.63;;;19.93;58.15
25947;BME280;13745;51.470;9.894;2022-10-16T08:59:20;99443.34;;;20.03;58.10
25947;BME280;13745;51.470;9.894;2022-10-16T09:02:22;99423.84;;;19.93;58.11
25947;BME280;13745;51.470;9.894;2022-10-16T09:05:36;99436.75;;;19.77;58.48
25947;BME280;13745;51.470;9.894;2022-10-16T09:08:34;99438.91;;;19.83;58.44
25947;BME280;13745;51.470;9.894;2022-10-16T09:11:29;99447.34;;;20.36;57.29
25947;BME280;13745;51.470;9.894;2022-10-16T09:14:35;99447.19;;;20.93;55.90
25947;BME280;13745;51.470;9.894;2022-10-16T09:17:34;99457.72;;;21.06;55.46
25947;BME280;13745;51.470;9.894;2022-10-16T09:20:30;99470.19;;;21.19;55.41
25947;BME280;13745;51.470;9.894;2022-10-16T09:23:19;99474.22;;;21.21;55.32
25947;BME280;13745;51.470;9.894;2022-10-16T09:26:09;99471.63;;;21.47;54.84
25947;BME280;13745;51.470;9.894;2022-10-16T09:28:56;99469.41;;;23.64;50.54
25947;BME280;13745;51.470;9.894;2022-10-16T09:31:44;99475.19;;;25.82;46.75
25947;BME280;13745;51.470;9.894;2022-10-16T09:34:32;99470.09;;;29.25;41.11
25947;BME280;13745;51.470;9.894;2022-10-16T09:37:21;99467.75;;;33.15;35.41
25947;BME280;13745;51.470;9.894;2022-10-16T09:40:12;99477.19;;;33.93;34.47
25947;BME280;13745;51.470;9.894;2022-10-16T09:43:02;99472.22;;;36.40;31.09
25947;BME280;13745;51.470;9.894;2022-10-16T09:45:56;99483.94;;;36.68;30.62
25947;BME280;13745;51.470;9.894;2022-10-16T09:48:47;99477.13;;;36.27;30.55
25947;BME280;13745;51.470;9.894;2022-10-16T09:51:35;99479.47;;;36.79;29.63
25947;BME280;13745;51.470;9.894;2022-10-16T09:54:21;99486.59;;;38.02;28.00
25947;BME280;13745;51.470;9.894;2022-10-16T09:57:12;99478.16;;;39.15;26.77
25947;BME280;13745;51.470;9.894;2022-10-16T10:00:08;99492.84;;;41.83;23.96
25947;BME280;13745;51.470;9.894;2022-10-16T10:02:55;99497.34;;;43.77;22.54
25947;BME280;13745;51.470;9.894;2022-10-16T10:05:47;99494.19;;;44.91;21.48
25947;BME280;13745;51.470;9.894;2022-10-16T10:08:35;99500.47;;;44.84;21.50
25947;BME280;13745;51.470;9.894;2022-10-16T10:11:38;99491.03;;;44.30;22.10
25947;BME280;13745;51.470;9.894;2022-10-16T10:14:27;99497.31;;;44.82;21.60
25947;BME280;13745;51.470;9.894;2022-10-16T10:17:17;99505.16;;;45.09;20.91
25947;BME280;13745;51.470;9.894;2022-10-16T10:20:20;99501.75;;;45.10;20.91
25947;BME280;13745;51.470;9.894;2022-10-16T10:23:20;99493.97;;;45.88;19.90
25947;BME280;13745;51.470;9.894;2022-10-16T10:26:14;99500.28;;;46.66;19.27
25947;BME280;13745;51.470;9.894;2022-10-16T10:29:04;99502.69;;;47.20;18.29
25947;BME280;13745;51.470;9.894;2022-10-16T10:32:00;99510.38;;;47.06;18.48
25947;BME280;13745;51.470;9.894;2022-10-16T10:35:05;99523.59;;;47.44;17.57
25947;BME280;13745;51.470;9.894;2022-10-16T10:38:05;99514.88;;;46.68;18.06
25947;BME280;13745;51.470;9.894;2022-10-16T10:41:03;99504.84;;;46.06;18.43
25947;BME280;13745;51.470;9.894;2022-10-16T10:44:03;99510.31;;;45.26;19.30
25947;BME280;13745;51.470;9.894;2022-10-16T10:46:56;99505.41;;;46.44;18.24
25947;BME280;13745;51.470;9.894;2022-10-16T10:49:51;99516.50;;;47.50;17.76
25947;BME280;13745;51.470;9.894;2022-10-16T10:52:51;99521.91;;;49.85;15.98
25947;BME280;13745;51.470;9.894;2022-10-16T10:55:43;99512.31;;;51.21;15.06
25947;BME280;13745;51.470;9.894;2022-10-16T10:58:54;99523.47;;;52.27;13.47
25947;BME280;13745;51.470;9.894;2022-10-16T11:01:48;99528.63;;;52.63;13.25
25947;BME280;13745;51.470;9.894;2022-10-16T11:04:58;99522.50;;;49.28;14.90
25947;BME280;13745;51.470;9.894;2022-10-16T11:07:51;99509.59;;;47.35;16.61
25947;BME280;13745;51.470;9.894;2022-10-16T11:10:44;99510.91;;;47.05;16.34
25947;BME280;13745;51.470;9.894;2022-10-16T11:13:36;99517.41;;;45.92;16.79
25947;BME280;13745;51.470;9.894;2022-10-16T11:16:29;99506.81;;;45.65;17.03
25947;BME280;13745;51.470;9.894;2022-10-16T11:19:25;99511.72;;;45.81;16.69
25947;BME280;13745;51.470;9.894;2022-10-16T11:22:17;99515.97;;;45.59;16.86
25947;BME280;13745;51.470;9.894;2022-10-16T11:25:13;99512.84;;;46.23;16.14
25947;BME280;13745;51.470;9.894;2022-10-16T11:28:02;99518.31;;;47.71;15.57
25947;BME280;13745;51.470;9.894;2022-10-16T11:30:56;99518.78;;;47.98;15.25
25947;BME280;13745;51.470;9.894;2022-10-16T11:33:47;99506.00;;;47.94;15.25
25947;BME280;13745;51.470;9.894;2022-10-16T11:36:38;99512.53;;;47.76;15.18
25947;BME280;13745;51.470;9.894;2022-10-16T11:39:27;99512.00;;;47.54;15.51
25947;BME280;13745;51.470;9.894;2022-10-16T11:42:19;99509.22;;;47.67;15.21
25947;BME280;13745;51.470;9.894;2022-10-16T11:45:14;99494.94;;;47.62;15.25
25947;BME280;13745;51.470;9.894;2022-10-16T11:48:11;99490.31;;;47.30;15.51
25947;BME280;13745;51.470;9.894;2022-10-16T11:51:05;99483.53;;;46.70;15.36
25947;BME280;13745;51.470;9.894;2022-10-16T11:53:58;99490.94;;;46.20;15.64
25947;BME280;13745;51.470;9.894;2022-10-16T11:56:48;99484.41;;;43.86;17.07
25947;BME280;13745;51.470;9.894;2022-10-16T11:59:41;99479.88;;;44.91;16.10
25947;BME280;13745;51.470;9.894;2022-10-16T12:02:38;99474.56;;;45.60;15.59
25947;BME280;13745;51.470;9.894;2022-10-16T12:05:35;99470.66;;;42.37;17.77
25947;BME280;13745;51.470;9.894;2022-10-16T12:08:29;99466.50;;;40.81;18.89
25947;BME280;13745;51.470;9.894;2022-10-16T12:11:30;99460.00;;;39.67;19.49
25947;BME280;13745;51.470;9.894;2022-10-16T12:14:18;99471.94;;;38.12;20.63
25947;BME280;13745;51.470;9.894;2022-10-16T12:17:23;99491.00;;;38.03;20.61
25947;BME280;13745;51.470;9.894;2022-10-16T12:20:29;99481.59;;;42.19;17.42
25947;BME280;13745;51.470;9.894;2022-10-16T12:23:20;99486.19;;;43.79;16.49
25947;BME280;13745;51.470;9.894;2022-10-16T12:26:08;99479.00;;;43.99;16.30
25947;BME280;13745;51.470;9.894;2022-10-16T12:28:54;99485.03;;;45.46;15.39
25947;BME280;13745;51.470;9.894;2022-10-16T12:31:44;99484.31;;;45.03;15.48
25947;BME280;13745;51.470;9.894;2022-10-16T12:34:37;99491.69;;;45.76;15.16
25947;BME280;13745;51.470;9.894;2022-10-16T12:37:26;99490.59;;;43.80;16.57
25947;BME280;13745;51.470;9.894;2022-10-16T12:40:16;99473.06;;;42.19;17.07
25947;BME280;13745;51.470;9.894;2022-10-16T12:43:25;99478.31;;;43.58;16.14
25947;BME280;13745;51.470;9.894;2022-10-16T12:46:23;99478.03;;;44.24;15.76
25947;BME280;13745;51.470;9.894;2022-10-16T12:49:31;99474.16;;;45.13;15.27
25947;BME280;13745;51.470;9.894;2022-10-16T12:52:25;99487.16;;;45.24;15.20
25947;BME280;13745;51.470;9.894;2022-10-16T12:55:16;99480.16;;;44.61;15.83
25947;BME280;13745;51.470;9.894;2022-10-16T12:58:19;99483.72;;;45.42;15.19
25947;BME280;13745;51.470;9.894;2022-10-16T13:01:20;99480.53;;;45.62;15.17
25947;BME280;13745;51.470;9.894;2022-10-16T13:04:37;99491.09;;;46.33;14.83
25947;BME280;13745;51.470;9.894;2022-10-16T13:07:40;99493.66;;;44.44;15.83
25947;BME280;13745;51.470;9.894;2022-10-16T13:10:35;99483.56;;;42.07;17.26
25947;BME280;13745;51.470;9.894;2022-10-16T13:13:37;99489.88;;;40.57;18.38
25947;BME280;13745;51.470;9.894;2022-10-16T13:16:32;99495.69;;;38.23;19.70
25947;BME280;13745;51.470;9.894;2022-10-16T13:19:30;99485.22;;;36.16;21.72
25947;BME280;13745;51.470;9.894;2022-10-16T13:22:22;99498.59;;;34.79;23.01
25947;BME280;13745;51.470;9.894;2022-10-16T13:25:20;99492.72;;;33.57;23.79
25947;BME280;13745;51.470;9.894;2022-10-16T13:28:08;99488.47;;;32.55;24.67
25947;BME280;13745;51.470;9.894;2022-10-16T13:30:58;99496.50;;;32.22;24.83
25947;BME280;13745;51.470;9.894;2022-10-16T13:33:47;99497.13;;;32.80;24.40
25947;BME280;13745;51.470;9.894;2022-10-16T13:36:43;99514.84;;;33.55;23.88
25947;BME280;13745;51.470;9.894;2022-10-16T13:39:30;99517.81;;;33.64;23.85
25947;BME280;13745;51.470;9.894;2022-10-16T13:42:22;99518.41;;;33.71;23.93
25947;BME280;13745;51.470;9.894;2022-10-16T13:45:18;99508.88;;;33.53;23.91
25947;BME280;13745;51.470;9.894;2022-10-16T13:48:08;99517.38;;;33.06;24.30
25947;BME280;13745;51.470;9.894;2022-10-16T13:51:00;99515.03;;;32.70;24.20
25947;BME280;13745;51.470;9.894;2022-10-16T13:53:46;99517.75;;;32.39;24.87
25947;BME280;13745;51.470;9.894;2022-10-16T13:56:32;99518.47;;;32.04;24.95
25947;BME280;13745;51.470;9.894;2022-10-16T13:59:25;99518.63;;;31.59;25.78
25947;BME280;13745;51.470;9.894;2022-10-16T14:02:20;99517.03;;;31.13;26.21
25947;BME280;13745;51.470;9.894;2022-10-16T14:05:10;99516.25;;;30.64;26.94
25947;BME280;13745;51.470;9.894;2022-10-16T14:07:57;99523.59;;;30.26;27.75
25947;BME280;13745;51.470;9.894;2022-10-16T14:10:47;99527.00;;;30.11;28.41
25947;BME280;13745;51.470;9.894;2022-10-16T14:13:37;99534.44;;;30.50;28.20
25947;BME280;13745;51.470;9.894;2022-10-16T14:16:26;99543.66;;;30.47;28.03
25947;BME280;13745;51.470;9.894;2022-10-16T14:19:19;99544.63;;;29.71;28.78
25947;BME280;13745;51.470;9.894;2022-10-16T14:22:23;99539.06;;;28.82;29.78
25947;BME280;13745;51.470;9.894;2022-10-16T14:25:24;99527.56;;;28.06;30.37
25947;BME280;13745;51.470;9.894;2022-10-16T14:28:17;99530.91;;;27.57;30.88
25947;BME280;13745;51.470;9.894;2022-10-16T14:31:24;99537.31;;;27.13;31.38
25947;BME280;13745;51.470;9.894;2022-10-16T14:34:24;99539.31;;;26.71;31.96
25947;BME280;13745;51.470;9.894;2022-10-16T14:37:20;99540.44;;;26.43;32.42
25947;BME280;13745;51.470;9.894;2022-10-16T14:40:14;99532.44;;;26.24;32.67
25947;BME280;13745;51.470;9.894;2022-10-16T14:43:01;99536.34;;;26.03;32.94
25947;BME280;13745;51.470;9.894;2022-10-16T14:45:51;99537.84;;;25.83;33.47
25947;BME280;13745;51.470;9.894;2022-10-16T14:48:40;99540.03;;;25.47;34.25
25947;BME280;13745;51.470;9.894;2022-10-16T14:51:26;99538.19;;;25.15;34.81
25947;BME280;13745;51.470;9.894;2022-10-16T14:54:15;99534.72;;;24.79;35.46
25947;BME280;13745;51.470;9.894;2022-10-16T14:57:01;99542.88;;;24.62;35.78
25947;BME280;13745;51.470;9.894;2022-10-16T14:59:48;99536.13;;;24.59;36.24
25947;BME280;13745;51.470;9.894;2022-10-16T15:02:35;99540.78;;;24.52;36.56